Time;durP1;ratioP1;P1;durP2;ratioP2;P2;SDS_P1;SDS_P2;PMS_P1;PMS_P2;Temp;Humidity;BMP_temperature;BMP_pressure;BME280_temperature;BME280_humidity;BME280_pressure;Samples;Min_cycle;Max_cycle;Signal;HPM_P1;HPM_P2
2021/12/12 00:01:32;;;;;;;30.50;12.35;;;;;;;3.62;98.69;102006.22;5090589;28;20443;-85
2021/12/12 00:04:11;;;;;;;26.27;11.68;;;;;;;3.61;98.37;102005.38;5087698;28;20082;-85
2021/12/12 00:06:41;;;;;;;29.70;11.88;;;;;;;3.63;98.23;102010.53;5089920;28;20028;-85
2021/12/12 00:09:26;;;;;;;26.42;11.90;;;;;;;3.64;98.06;102012.22;5090061;28;20028;-85
2021/12/12 00:11:53;;;;;;;30.33;11.57;;;;;;;3.64;98.55;102013.09;5091234;28;20032;-84
2021/12/12 00:14:26;;;;;;;29.90;11.98;;;;;;;3.66;98.34;102005.25;5098299;28;20028;-85
2021/12/12 00:16:53;;;;;;;29.30;11.60;;;;;;;3.65;98.15;101996.56;5090877;28;20114;-78
2021/12/12 00:19:20;;;;;;;27.95;11.40;;;;;;;3.68;98.30;101993.88;5084031;28;20029;-78
2021/12/12 00:21:49;;;;;;;29.48;11.15;;;;;;;3.62;98.23;101988.84;5091184;28;20158;-85
2021/12/12 00:24:16;;;;;;;32.08;11.00;;;;;;;3.64;98.19;101997.47;5091098;28;20099;-84
2021/12/12 00:26:44;;;;;;;33.28;10.82;;;;;;;3.64;98.20;101992.28;5090892;28;20028;-85
2021/12/12 00:29:14;;;;;;;25.90;10.25;;;;;;;3.66;98.32;101990.47;5091522;28;20045;-85
2021/12/12 00:31:40;;;;;;;27.92;11.15;;;;;;;3.71;98.12;101991.19;5090273;28;20093;-85
2021/12/12 00:34:06;;;;;;;33.65;10.60;;;;;;;3.71;98.16;101983.41;5090350;28;20095;-85
2021/12/12 00:36:34;;;;;;;31.85;11.07;;;;;;;3.71;98.33;101970.38;5090713;28;20448;-84
2021/12/12 00:39:06;;;;;;;27.73;10.43;;;;;;;3.73;97.74;101980.75;5089101;28;20020;-85
2021/12/12 00:41:55;;;;;;;27.07;10.87;;;;;;;3.70;97.99;101976.47;5089310;28;20675;-85
2021/12/12 00:44:22;;;;;;;29.90;10.57;;;;;;;3.74;98.08;101978.09;5088348;28;20046;-84
2021/12/12 00:46:48;;;;;;;27.83;10.25;;;;;;;3.71;98.13;101972.97;5090131;28;20020;-84
2021/12/12 00:49:16;;;;;;;29.52;10.30;;;;;;;3.74;98.39;101967.69;5089885;28;20468;-84
2021/12/12 00:51:44;;;;;;;25.98;10.68;;;;;;;3.71;98.09;101961.72;5091232;28;20116;-85
2021/12/12 00:54:13;;;;;;;26.17;10.63;;;;;;;3.76;97.90;101971.09;5089805;28;20016;-84
2021/12/12 00:56:39;;;;;;;29.58;10.38;;;;;;;3.78;98.49;101971.91;5085577;28;20039;-79
2021/12/12 00:59:05;;;;;;;31.23;10.70;;;;;;;3.80;98.52;101963.22;5089520;28;20103;-84
2021/12/12 01:01:42;;;;;;;37.58;10.88;;;;;;;3.77;98.80;101954.59;5090562;28;20032;-84
2021/12/12 01:04:16;;;;;;;33.85;10.75;;;;;;;3.82;98.46;101959.66;5089733;28;20403;-84
2021/12/12 01:06:46;;;;;;;28.95;10.65;;;;;;;3.78;98.61;101942.44;5090876;28;20024;-85
2021/12/12 01:09:21;;;;;;;33.53;11.00;;;;;;;3.80;98.87;101947.59;5090306;28;20028;-85
2021/12/12 01:11:50;;;;;;;28.55;11.18;;;;;;;3.83;98.60;101950.97;5090588;28;20034;-85
2021/12/12 01:14:20;;;;;;;26.85;10.30;;;;;;;3.85;98.93;101958.72;5104754;28;20491;-85
2021/12/12 01:16:58;;;;;;;32.33;11.05;;;;;;;3.83;99.18;101955.31;5109368;28;20023;-84
2021/12/12 01:19:31;;;;;;;28.73;11.30;;;;;;;3.82;98.99;101958.81;5109651;28;20027;-85
2021/12/12 01:22:02;;;;;;;26.52;10.73;;;;;;;3.82;99.14;101959.66;5110943;28;20046;-86
2021/12/12 01:24:34;;;;;;;28.95;10.27;;;;;;;3.83;98.96;101950.97;5111243;28;20099;-85
2021/12/12 01:27:03;;;;;;;33.88;11.35;;;;;;;3.88;99.28;101953.44;5111380;28;20023;-85
2021/12/12 01:29:29;;;;;;;29.20;11.07;;;;;;;3.88;99.01;101958.63;5091739;28;20043;-86
2021/12/12 01:31:56;;;;;;;28.85;11.48;;;;;;;3.83;98.97;101956.16;5090485;28;20086;-86
2021/12/12 01:34:26;;;;;;;33.10;11.60;;;;;;;3.85;99.11;101956.97;5090490;28;20106;-86
2021/12/12 01:39:28;;;;;;;37.45;11.75;;;;;;;3.86;99.28;101950.00;5069618;28;20408;-81
2021/12/12 01:42:05;;;;;;;30.92;11.38;;;;;;;3.91;99.34;101967.22;5069513;28;20507;-84
2021/12/12 01:44:46;;;;;;;34.40;11.75;;;;;;;3.87;99.80;101941.31;5069175;28;20024;-85
2021/12/12 01:47:26;;;;;;;29.77;12.02;;;;;;;3.93;99.33;101952.41;5075326;28;20052;-85
2021/12/12 01:49:57;;;;;;;37.00;10.93;;;;;;;3.95;99.81;101955.81;5073326;28;20026;-85
2021/12/12 01:52:27;;;;;;;30.30;11.63;;;;;;;3.92;99.59;101950.69;5089751;28;20054;-79
2021/12/12 01:54:59;;;;;;;36.72;12.38;;;;;;;3.97;100.00;101956.63;5089795;28;20324;-85
2021/12/12 01:57:28;;;;;;;26.02;11.48;;;;;;;3.96;100.00;101956.66;5088034;28;20023;-85
2021/12/12 01:59:56;;;;;;;32.50;10.98;;;;;;;3.98;99.54;101954.88;5089393;28;20032;-80
2021/12/12 02:02:26;;;;;;;35.25;11.88;;;;;;;3.92;99.89;101940.28;5089172;28;20122;-86
2021/12/12 02:04:56;;;;;;;33.83;11.27;;;;;;;4.00;100.00;101947.84;5078867;28;20456;-85
2021/12/12 02:07:25;;;;;;;31.63;11.35;;;;;;;3.97;100.00;101942.75;5088148;28;20043;-85
2021/12/12 02:09:52;;;;;;;31.90;12.10;;;;;;;3.94;100.00;101941.09;5089512;28;20032;-85
2021/12/12 02:12:20;;;;;;;32.13;11.02;;;;;;;3.97;100.00;101937.53;5088934;28;20120;-85
2021/12/12 02:14:46;;;;;;;32.13;11.65;;;;;;;4.01;100.00;101934.81;5108403;28;20020;-85
2021/12/12 02:17:24;;;;;;;32.05;11.27;;;;;;;4.06;100.00;101937.28;5110101;28;20027;-77
2021/12/12 02:22:44;;;;;;;38.25;11.75;;;;;;;4.01;100.00;101928.78;5079282;28;20047;-84
2021/12/12 02:36:05;;;;;;;30.70;10.73;;;;;;;4.17;100.00;101930.00;5089135;28;20135;-83
2021/12/12 02:38:33;;;;;;;30.88;10.98;;;;;;;4.15;100.00;101928.34;5079997;28;20509;-84
2021/12/12 02:41:04;;;;;;;31.70;10.93;;;;;;;4.23;100.00;101935.03;5087047;28;20028;-84
2021/12/12 02:43:33;;;;;;;33.40;11.32;;;;;;;4.24;100.00;101925.47;5081718;28;20024;-84
2021/12/12 02:45:59;;;;;;;31.80;10.32;;;;;;;4.27;100.00;101920.16;5088300;28;20050;-84
2021/12/12 02:48:28;;;;;;;29.95;10.75;;;;;;;4.21;100.00;101897.75;5087344;28;20024;-84
2021/12/12 02:50:56;;;;;;;32.50;10.45;;;;;;;4.29;100.00;101903.56;5089228;28;20103;-84
2021/12/12 02:53:27;;;;;;;24.13;10.27;;;;;;;4.27;100.00;101900.16;5088205;28;20498;-84
2021/12/12 02:56:00;;;;;;;34.45;11.30;;;;;;;4.28;100.00;101896.66;5082221;28;20020;-84
2021/12/12 02:58:26;;;;;;;25.88;9.88;;;;;;;4.31;100.00;101900.91;5088687;28;20024;-84
2021/12/12 03:01:03;;;;;;;29.77;10.75;;;;;;;4.34;100.00;101909.50;5082787;28;20571;-84
2021/12/12 03:03:31;;;;;;;35.75;10.88;;;;;;;4.34;100.00;101906.88;5086220;28;20162;-84
2021/12/12 03:05:57;;;;;;;30.48;10.57;;;;;;;4.29;100.00;101903.56;5087495;28;20078;-79
2021/12/12 03:08:22;;;;;;;29.02;10.05;;;;;;;4.33;100.00;101902.56;5091135;28;20469;-84
2021/12/12 03:10:51;;;;;;;30.70;10.93;;;;;;;4.38;100.00;101910.25;5088936;28;20140;-83
2021/12/12 03:13:17;;;;;;;32.92;10.10;;;;;;;4.38;100.00;101908.50;5093363;28;20015;-79
2021/12/12 03:15:46;;;;;;;31.23;11.30;;;;;;;4.35;100.00;101900.78;5082632;28;20024;-83
2021/12/12 03:18:20;;;;;;;28.95;11.05;;;;;;;4.40;100.00;101905.84;5092502;28;20024;-84
2021/12/12 03:20:51;;;;;;;33.67;12.60;;;;;;;4.40;100.00;101906.72;5091787;28;20518;-83
2021/12/12 03:23:23;;;;;;;32.80;11.25;;;;;;;4.36;100.00;101889.44;5091754;28;20051;-83
2021/12/12 03:25:53;;;;;;;32.33;11.98;;;;;;;4.36;100.00;101886.84;5092049;28;20033;-78
2021/12/12 03:28:21;;;;;;;29.63;11.05;;;;;;;4.44;100.00;101896.19;5090863;28;20040;-83
2021/12/12 03:30:49;;;;;;;36.90;13.10;;;;;;;4.44;100.00;101893.59;5085478;28;20031;-83
2021/12/12 03:33:15;;;;;;;29.75;11.55;;;;;;;4.36;100.00;101873.81;5091777;28;20028;-84
2021/12/12 03:35:44;;;;;;;29.02;11.80;;;;;;;4.38;100.00;101872.03;5091174;28;20142;-84
2021/12/12 03:38:10;;;;;;;32.28;12.20;;;;;;;4.45;100.00;101871.84;5092269;28;20472;-83
2021/12/12 03:40:38;;;;;;;33.45;12.43;;;;;;;4.38;100.00;101871.16;5090414;28;20050;-84
2021/12/12 03:43:06;;;;;;;34.33;13.05;;;;;;;4.40;100.00;101875.47;5091174;28;20076;-83
2021/12/12 03:45:33;;;;;;;36.80;12.57;;;;;;;4.47;100.00;101870.91;5086051;28;20088;-83
2021/12/12 03:48:04;;;;;;;31.88;12.90;;;;;;;4.50;100.00;101880.38;5091839;28;20028;-83
2021/12/12 03:50:33;;;;;;;33.05;12.57;;;;;;;4.50;100.00;101881.22;5089621;28;20472;-84
2021/12/12 03:52:59;;;;;;;33.55;12.43;;;;;;;4.52;100.00;101881.16;5091230;28;20039;-83
2021/12/12 03:55:30;;;;;;;27.05;12.00;;;;;;;4.53;100.00;101872.44;5090250;28;20427;-83
2021/12/12 03:57:59;;;;;;;38.85;12.90;;;;;;;4.52;100.00;101881.16;5090945;28;20036;-83
2021/12/12 04:00:29;;;;;;;28.10;12.57;;;;;;;4.54;100.00;101881.97;5090785;28;20531;-84
2021/12/12 04:02:55;;;;;;;32.20;12.73;;;;;;;4.55;100.00;101870.66;5084585;28;20020;-83
2021/12/12 04:05:21;;;;;;;22.45;11.98;;;;;;;4.57;100.00;101881.88;5090291;28;20122;-83
2021/12/12 04:07:47;;;;;;;31.77;11.85;;;;;;;4.59;100.00;101886.13;5091083;28;20554;-79
2021/12/12 04:10:18;;;;;;;24.95;11.70;;;;;;;4.58;100.00;101873.16;5090842;28;20082;-83
2021/12/12 04:12:44;;;;;;;32.20;11.60;;;;;;;4.62;100.00;101878.22;5093146;28;20106;-83
2021/12/12 04:15:10;;;;;;;29.23;10.65;;;;;;;4.61;100.00;101873.91;5095083;28;20174;-83
2021/12/12 04:17:36;;;;;;;29.13;11.27;;;;;;;4.66;100.00;101881.56;5089007;28;20760;-83
2021/12/12 04:20:09;;;;;;;21.35;10.90;;;;;;;4.68;100.00;101878.00;5087681;28;20032;-83
2021/12/12 04:22:35;;;;;;;28.17;11.02;;;;;;;4.66;100.00;101882.41;5090317;28;20032;-79
2021/12/12 04:25:03;;;;;;;25.98;10.57;;;;;;;4.70;100.00;101888.38;5088596;28;20054;-78
2021/12/12 04:27:28;;;;;;;23.00;11.18;;;;;;;4.66;100.00;101872.00;5088793;28;20044;-83
2021/12/12 04:29:54;;;;;;;24.83;10.60;;;;;;;4.73;100.00;101889.13;5089128;28;20024;-83
2021/12/12 04:32:24;;;;;;;22.17;10.07;;;;;;;4.77;100.00;101883.81;5088528;28;20050;-79
2021/12/12 04:34:57;;;;;;;22.42;10.63;;;;;;;4.76;100.00;101887.31;5089104;28;20028;-85
2021/12/12 04:37:24;;;;;;;22.50;10.80;;;;;;;4.73;100.00;101885.66;5087920;28;20044;-83
2021/12/12 04:39:53;;;;;;;25.75;10.68;;;;;;;4.80;100.00;101881.94;5087068;28;20024;-83
2021/12/12 04:42:29;;;;;;;25.27;10.50;;;;;;;4.81;100.00;101888.91;5090892;28;20063;-83
2021/12/12 04:45:14;;;;;;;24.70;10.38;;;;;;;4.84;100.00;101883.59;5090422;28;20058;-82
2021/12/12 04:51:09;;;;;;;23.73;11.10;;;;;;;4.86;100.00;101883.53;5087918;28;20043;-83
2021/12/12 04:53:54;;;;;;;25.25;10.20;;;;;;;4.87;100.00;101886.09;5082396;28;20428;-82
2021/12/12 04:56:32;;;;;;;19.67;9.65;;;;;;;4.90;100.00;101891.19;5081639;28;20081;-78
2021/12/12 04:59:04;;;;;;;19.38;10.15;;;;;;;4.89;100.00;101886.88;5090100;28;20425;-82
2021/12/12 05:01:58;;;;;;;19.20;9.80;;;;;;;4.92;100.00;101893.75;5077870;28;20031;-79
2021/12/12 05:04:52;;;;;;;19.63;9.65;;;;;;;4.91;100.00;101887.69;5089719;28;20024;-83
2021/12/12 05:07:25;;;;;;;19.83;10.05;;;;;;;4.94;100.00;101898.00;5088291;28;20051;-83
2021/12/12 05:09:56;;;;;;;21.10;10.15;;;;;;;4.93;100.00;101890.22;5089554;28;20051;-85
2021/12/12 05:12:28;;;;;;;20.52;9.95;;;;;;;4.95;100.00;101891.88;5083511;28;20123;-81
2021/12/12 05:15:03;;;;;;;19.38;9.88;;;;;;;4.95;100.00;101899.72;5094427;28;20027;-85
2021/12/12 05:17:35;;;;;;;18.65;9.40;;;;;;;4.98;100.00;101910.03;5089263;28;20040;-85
2021/12/12 05:20:06;;;;;;;18.38;10.05;;;;;;;5.00;100.00;101908.22;5089461;28;20118;-85
2021/12/12 05:22:38;;;;;;;21.48;10.45;;;;;;;5.00;100.00;101903.00;5087675;28;20754;-84
2021/12/12 05:25:09;;;;;;;15.90;9.75;;;;;;;5.02;100.00;101911.63;5089339;28;20387;-81
2021/12/12 05:27:37;;;;;;;18.90;10.20;;;;;;;5.04;100.00;101904.59;5089281;28;20515;-85
2021/12/12 05:30:17;;;;;;;22.40;10.38;;;;;;;5.08;100.00;101910.56;5082731;28;20050;-85
2021/12/12 05:32:44;;;;;;;18.40;9.50;;;;;;;5.08;100.00;101909.72;5089367;28;20046;-84
2021/12/12 05:35:12;;;;;;;16.95;9.65;;;;;;;5.10;100.00;101907.91;5088362;28;20028;-84
2021/12/12 05:37:39;;;;;;;17.75;9.73;;;;;;;5.10;100.00;101907.91;5089180;28;20056;-85
2021/12/12 05:40:08;;;;;;;16.40;9.15;;;;;;;5.13;100.00;101908.66;5089179;28;20040;-85
2021/12/12 05:42:34;;;;;;;16.17;9.88;;;;;;;5.09;100.00;101901.00;5087250;28;20016;-85
2021/12/12 05:45:01;;;;;;;16.77;9.45;;;;;;;5.08;100.00;101896.69;5089582;28;20426;-83
2021/12/12 05:47:27;;;;;;;21.83;10.13;;;;;;;5.14;100.00;101899.06;5088424;28;20081;-83
2021/12/12 05:49:52;;;;;;;17.42;9.65;;;;;;;5.20;100.00;101911.91;5082691;28;20032;-83
2021/12/12 05:52:20;;;;;;;15.55;9.45;;;;;;;5.19;100.00;101912.81;5088423;28;20028;-79
2021/12/12 05:54:47;;;;;;;15.02;9.48;;;;;;;5.23;100.00;101915.28;5089454;28;20055;-83
2021/12/12 05:57:16;;;;;;;14.52;9.32;;;;;;;5.25;100.00;101925.66;5087430;28;20111;-83
2021/12/12 05:59:45;;;;;;;16.65;9.43;;;;;;;5.20;100.00;101915.38;5089903;28;20070;-83
2021/12/12 06:02:14;;;;;;;16.42;9.73;;;;;;;5.29;100.00;101929.88;5090060;28;20024;-82
2021/12/12 06:04:40;;;;;;;16.67;9.70;;;;;;;5.28;100.00;101925.56;5085549;28;20012;-83
2021/12/12 06:07:10;;;;;;;17.88;9.82;;;;;;;5.24;100.00;101921.34;5085758;28;20047;-82
2021/12/12 06:09:37;;;;;;;15.85;10.15;;;;;;;5.33;100.00;101941.91;5089992;28;20091;-83
2021/12/12 06:12:06;;;;;;;16.88;10.40;;;;;;;5.30;100.00;101936.78;5087428;28;20034;-83
2021/12/12 06:14:32;;;;;;;16.65;11.00;;;;;;;5.32;100.00;101927.16;5092661;28;20172;-83
2021/12/12 06:17:01;;;;;;;18.80;11.45;;;;;;;5.36;100.00;101933.97;5088820;28;20051;-83
2021/12/12 06:19:31;;;;;;;22.13;11.70;;;;;;;5.34;100.00;101927.94;5089082;28;20383;-83
2021/12/12 06:21:58;;;;;;;19.85;11.40;;;;;;;5.38;100.00;101934.75;5087571;28;20028;-83
2021/12/12 06:24:26;;;;;;;19.15;11.70;;;;;;;5.39;100.00;101930.41;5085103;28;20027;-83
2021/12/12 06:26:52;;;;;;;19.35;12.13;;;;;;;5.46;100.00;101931.88;5083440;28;20023;-83
2021/12/12 06:29:19;;;;;;;19.00;12.02;;;;;;;5.49;100.00;101937.00;5088400;28;20099;-83
2021/12/12 06:31:52;;;;;;;18.42;11.82;;;;;;;5.43;100.00;101918.94;5087970;28;20032;-84
2021/12/12 06:34:18;;;;;;;18.15;12.30;;;;;;;5.50;100.00;101933.47;5088338;28;20060;-83
2021/12/12 06:36:46;;;;;;;18.63;11.88;;;;;;;5.49;100.00;101930.00;5086936;28;20467;-83
2021/12/12 06:39:14;;;;;;;18.00;12.10;;;;;;;5.50;100.00;101918.66;5087597;28;20472;-83
2021/12/12 06:41:40;;;;;;;17.35;12.80;;;;;;;5.55;100.00;101931.53;5088882;28;20035;-83
2021/12/12 06:44:08;;;;;;;21.45;12.25;;;;;;;5.51;100.00;101922.13;5092560;28;20479;-83
2021/12/12 06:46:35;;;;;;;19.55;12.15;;;;;;;5.58;100.00;101929.69;5083735;28;20024;-83
2021/12/12 06:49:03;;;;;;;18.55;12.43;;;;;;;5.57;100.00;101941.03;5091200;28;20491;-83
2021/12/12 06:51:32;;;;;;;19.35;12.73;;;;;;;5.52;100.00;101927.28;5092230;28;20084;-83
2021/12/12 06:53:57;;;;;;;21.05;12.73;;;;;;;5.59;100.00;101933.13;5091573;28;20031;-83
2021/12/12 06:56:26;;;;;;;18.88;13.55;;;;;;;5.64;100.00;101936.47;5090004;28;20055;-78
2021/12/12 06:58:51;;;;;;;22.17;14.45;;;;;;;5.66;100.00;101937.25;5091000;28;20364;-83
2021/12/12 07:01:24;;;;;;;24.33;13.43;;;;;;;5.65;100.00;101935.56;5091389;28;20115;-83
2021/12/12 07:03:51;;;;;;;25.25;13.88;;;;;;;5.71;100.00;101944.91;5092386;28;20059;-83
2021/12/12 07:06:20;;;;;;;23.67;14.60;;;;;;;5.72;100.00;101939.66;5091853;28;20024;-83
2021/12/12 07:08:45;;;;;;;21.42;13.77;;;;;;;5.76;100.00;101945.59;5092256;28;20028;-83
2021/12/12 07:11:15;;;;;;;23.70;14.13;;;;;;;5.77;100.00;101944.69;5093067;28;20475;-83
2021/12/12 07:13:45;;;;;;;21.55;13.40;;;;;;;5.79;100.00;101950.72;5111017;27;20489;-83
2021/12/12 07:16:10;;;;;;;21.38;13.93;;;;;;;5.75;100.00;101934.31;5088171;28;20047;-83
2021/12/12 07:18:35;;;;;;;19.30;14.48;;;;;;;5.81;100.00;101949.75;5090556;28;20061;-82
2021/12/12 07:21:10;;;;;;;23.58;14.82;;;;;;;5.82;100.00;101943.63;5091561;28;20169;-83
2021/12/12 07:23:39;;;;;;;21.48;14.75;;;;;;;5.88;100.00;101952.97;5092085;28;20488;-83
2021/12/12 07:26:07;;;;;;;22.05;14.23;;;;;;;5.87;100.00;101943.44;5091738;28;20039;-83
2021/12/12 07:28:34;;;;;;;20.55;14.70;;;;;;;5.87;100.00;101953.88;5091126;28;20395;-83
2021/12/12 07:31:21;;;;;;;26.83;14.82;;;;;;;5.95;100.00;101957.09;5091161;28;20035;-83
2021/12/12 07:33:51;;;;;;;25.10;15.40;;;;;;;5.89;100.00;101941.63;5092090;28;20028;-83
2021/12/12 07:36:18;;;;;;;22.65;15.05;;;;;;;5.89;100.00;101936.41;5091025;28;20446;-83
2021/12/12 07:38:47;;;;;;;25.98;15.73;;;;;;;5.90;100.00;101938.13;5091481;28;20039;-83
2021/12/12 07:41:17;;;;;;;27.65;15.82;;;;;;;5.98;100.00;101955.22;5091090;28;20028;-83
2021/12/12 07:43:45;;;;;;;31.60;16.17;;;;;;;5.97;100.00;101956.13;5092002;28;20035;-83
2021/12/12 07:46:14;;;;;;;29.83;16.52;;;;;;;5.96;100.00;101949.19;5091929;28;20115;-83
2021/12/12 07:48:46;;;;;;;27.58;16.60;;;;;;;6.03;100.00;101957.69;5088371;28;20499;-83
2021/12/12 07:51:12;;;;;;;28.25;16.08;;;;;;;6.03;100.00;101960.31;5091509;28;20036;-83
2021/12/12 07:53:38;;;;;;;28.85;15.93;;;;;;;6.08;100.00;101962.75;5089980;28;20062;-83
2021/12/12 07:56:05;;;;;;;28.20;15.70;;;;;;;6.03;100.00;101955.09;5089869;28;20067;-83
2021/12/12 07:58:31;;;;;;;30.63;17.48;;;;;;;6.05;100.00;101957.63;5088956;28;20043;-82
2021/12/12 08:00:58;;;;;;;28.88;16.52;;;;;;;6.07;100.00;101961.03;5091427;28;20028;-83
2021/12/12 08:03:29;;;;;;;31.75;15.85;;;;;;;6.09;100.00;101964.44;5089999;28;21020;-83
2021/12/12 08:05:54;;;;;;;31.50;17.25;;;;;;;6.11;100.00;101973.94;5085939;28;20028;-83
2021/12/12 08:08:24;;;;;;;30.83;16.17;;;;;;;6.14;100.00;101963.38;5089904;28;20093;-82
2021/12/12 08:10:50;;;;;;;30.35;16.70;;;;;;;6.15;100.00;101970.28;5076712;28;20021;-82
2021/12/12 08:13:17;;;;;;;33.47;17.35;;;;;;;6.16;100.00;101964.16;5086304;28;20054;-83
2021/12/12 08:15:43;;;;;;;33.05;16.50;;;;;;;6.22;100.00;101970.91;5087812;28;20024;-82
2021/12/12 08:18:11;;;;;;;29.55;17.42;;;;;;;6.24;100.00;101975.16;5090853;28;20393;-82
2021/12/12 08:20:37;;;;;;;29.33;15.98;;;;;;;6.24;100.00;101980.38;5091202;28;20024;-82
2021/12/12 08:23:04;;;;;;;34.17;16.35;;;;;;;6.29;100.00;101993.28;5090389;28;20032;-83
2021/12/12 08:25:31;;;;;;;32.35;17.23;;;;;;;6.32;100.00;101987.09;5090241;28;20027;-79
2021/12/12 08:28:00;;;;;;;31.15;16.75;;;;;;;6.33;100.00;102004.47;5087713;28;20034;-83
2021/12/12 08:30:28;;;;;;;27.98;17.20;;;;;;;6.34;100.00;102003.56;5089239;28;20103;-83
2021/12/12 08:32:54;;;;;;;28.60;16.83;;;;;;;6.33;100.00;102001.84;5088471;28;20020;-83
2021/12/12 08:35:22;;;;;;;32.42;17.58;;;;;;;6.38;100.00;102018.22;5090249;28;20043;-82
2021/12/12 08:37:49;;;;;;;32.65;17.10;;;;;;;6.39;100.00;102010.31;5087217;28;20043;-83
2021/12/12 08:40:20;;;;;;;36.78;17.05;;;;;;;6.34;100.00;101993.94;5090106;28;20037;-84
2021/12/12 08:42:47;;;;;;;31.77;17.02;;;;;;;6.36;100.00;102009.56;5086817;28;20032;-84
2021/12/12 08:45:17;;;;;;;27.33;16.35;;;;;;;6.39;100.00;102005.09;5087799;28;20031;-84
2021/12/12 08:47:44;;;;;;;37.30;17.27;;;;;;;6.46;100.00;102010.97;5077722;28;20024;-83
2021/12/12 08:50:14;;;;;;;32.72;17.20;;;;;;;6.43;100.00;102011.06;5092009;28;20032;-84
2021/12/12 08:52:42;;;;;;;34.33;17.00;;;;;;;6.43;100.00;102006.69;5089671;28;20073;-84
2021/12/12 08:55:18;;;;;;;32.13;17.30;;;;;;;6.45;100.00;102014.47;5087945;28;20415;-84
2021/12/12 08:58:14;;;;;;;31.65;17.13;;;;;;;6.46;100.00;102010.97;5088421;28;20028;-85
2021/12/12 09:00:41;;;;;;;33.13;16.83;;;;;;;6.47;100.00;102012.66;5088567;28;20067;-84
2021/12/12 09:03:09;;;;;;;39.35;18.45;;;;;;;6.51;100.00;102024.69;5088888;28;20027;-83
2021/12/12 09:05:42;;;;;;;36.28;18.70;;;;;;;6.56;100.00;102030.59;5072271;28;20056;-83
2021/12/12 09:08:16;;;;;;;35.17;18.17;;;;;;;6.58;100.00;102031.41;5096460;28;20024;-83
2021/12/12 09:11:04;;;;;;;43.63;18.58;;;;;;;6.58;100.00;102031.41;5089031;28;20024;-84
2021/12/12 09:13:37;;;;;;;42.65;18.17;;;;;;;6.62;100.00;102025.13;5089042;28;20026;-83
2021/12/12 09:16:18;;;;;;;35.10;17.83;;;;;;;6.64;100.00;102025.94;5089948;28;20522;-83
2021/12/12 09:18:53;;;;;;;34.78;17.58;;;;;;;6.66;100.00;102037.19;5090023;28;20024;-83
2021/12/12 09:21:25;;;;;;;37.58;17.90;;;;;;;6.68;100.00;102026.66;5087913;28;20035;-84
2021/12/12 09:24:04;;;;;;;36.50;18.17;;;;;;;6.66;100.00;102042.41;5089591;28;20023;-84
2021/12/12 09:26:32;;;;;;;38.00;17.75;;;;;;;6.68;100.00;102037.13;5081406;28;20115;-83
2021/12/12 09:29:02;;;;;;;38.53;18.15;;;;;;;6.72;100.00;102055.25;5087613;28;20549;-82
2021/12/12 09:31:50;;;;;;;38.42;17.52;;;;;;;6.68;100.00;102039.72;5094959;28;20442;-83
2021/12/12 09:34:32;;;;;;;30.38;16.88;;;;;;;6.75;100.00;102055.13;5087933;28;20040;-82
2021/12/12 09:37:05;;;;;;;31.15;16.55;;;;;;;6.75;100.00;102054.28;5089862;28;20040;-83
2021/12/12 09:39:37;;;;;;;36.83;16.58;;;;;;;6.77;100.00;102058.53;5082037;28;20031;-83
2021/12/12 09:42:15;;;;;;;33.67;16.90;;;;;;;6.83;100.00;102057.47;5087073;28;20555;-84
2021/12/12 09:45:18;;;;;;;29.85;16.25;;;;;;;6.86;100.00;102065.19;5083844;28;20277;-85
2021/12/12 09:51:14;;;;;;;39.85;17.52;;;;;;;6.81;100.00;102051.44;5083606;28;20024;-81
2021/12/12 09:51:15;;;;;;;34.63;15.93;;;;;;;6.90;100.00;102067.63;5082775;28;20105;-82
2021/12/12 09:54:00;;;;;;;32.92;17.65;;;;;;;6.90;100.00;102065.00;5077971;28;20614;-84
2021/12/12 09:56:56;;;;;;;35.35;16.27;;;;;;;6.96;100.00;102074.38;5087613;28;20032;-84
2021/12/12 09:59:43;;;;;;;35.33;17.35;;;;;;;6.98;100.00;102074.31;5088674;28;20024;-84
2021/12/12 10:02:41;;;;;;;41.53;16.83;;;;;;;7.01;100.00;102068.97;5087404;28;20089;-84
2021/12/12 10:05:18;;;;;;;33.90;16.15;;;;;;;7.01;100.00;102068.97;5088862;28;20078;-84
2021/12/12 10:07:55;;;;;;;34.28;17.30;;;;;;;7.03;100.00;102064.53;5076272;28;20430;-83
2021/12/12 10:10:30;;;;;;;34.35;18.10;;;;;;;6.98;100.00;102062.09;5072639;28;20044;-84
2021/12/12 10:13:22;;;;;;;36.92;17.30;;;;;;;7.05;100.00;102062.69;5090051;28;20028;-84
2021/12/12 10:15:58;;;;;;;31.95;17.17;;;;;;;7.03;100.00;102065.38;5082090;28;20027;-84
2021/12/12 10:18:43;;;;;;;35.80;17.30;;;;;;;7.05;100.00;102067.94;5088574;28;20032;-84
2021/12/12 10:21:15;;;;;;;32.25;17.08;;;;;;;7.10;100.00;102069.44;5087277;28;20606;-84
2021/12/12 10:23:40;;;;;;;35.90;17.58;;;;;;;7.14;100.00;102072.78;5088233;28;20032;-84
2021/12/12 10:26:15;;;;;;;35.10;16.27;;;;;;;7.14;100.00;102072.78;5088723;28;20104;-84
2021/12/12 10:28:59;;;;;;;38.85;17.55;;;;;;;7.15;100.00;102070.09;5081240;28;20453;-84
2021/12/12 10:31:29;;;;;;;32.85;16.77;;;;;;;7.19;100.00;102076.06;5088229;28;20023;-84
2021/12/12 10:34:01;;;;;;;35.45;17.52;;;;;;;7.14;100.00;102064.94;5088822;28;20036;-84
2021/12/12 10:36:34;;;;;;;33.55;17.65;;;;;;;7.21;100.00;102074.28;5088616;28;20419;-84
2021/12/12 10:39:13;;;;;;;35.50;17.63;;;;;;;7.20;100.00;102072.53;5088092;28;20039;-84
2021/12/12 10:41:58;;;;;;;40.35;17.58;;;;;;;7.26;100.00;102071.47;5089002;28;20073;-84
2021/12/12 10:44:36;;;;;;;37.45;17.70;;;;;;;7.24;100.00;102068.91;5080773;28;20082;-84
2021/12/12 10:47:13;;;;;;;41.10;18.52;;;;;;;7.29;100.00;102073.97;5088765;28;20101;-84
2021/12/12 10:50:10;;;;;;;34.03;17.83;;;;;;;7.31;100.00;102078.22;5089077;28;20024;-84
2021/12/12 10:52:49;;;;;;;35.47;17.85;;;;;;;7.28;100.00;102069.63;5043964;28;20158;-85
2021/12/12 10:55:21;;;;;;;36.30;18.08;;;;;;;7.33;100.00;102075.53;5081825;28;20070;-84
2021/12/12 10:58:00;;;;;;;35.38;18.13;;;;;;;7.31;100.00;102067.75;5087057;28;20024;-84
2021/12/12 11:00:31;;;;;;;34.33;17.85;;;;;;;7.37;100.00;102085.81;5081721;28;20112;-84
2021/12/12 11:03:00;;;;;;;36.40;18.27;;;;;;;7.39;100.00;102084.00;5081378;28;20036;-84
2021/12/12 11:05:37;;;;;;;31.67;18.17;;;;;;;7.32;100.00;102065.97;5086438;28;20111;-84
2021/12/12 11:08:39;;;;;;;35.53;17.67;;;;;;;7.34;100.00;102061.53;5087965;28;20059;-84
2021/12/12 11:11:12;;;;;;;31.27;16.73;;;;;;;7.43;100.00;102076.84;5072546;28;20025;-84
2021/12/12 11:14:01;;;;;;;36.55;17.15;;;;;;;7.40;100.00;102075.22;5088219;28;20032;-84
2021/12/12 11:16:33;;;;;;;33.65;18.02;;;;;;;7.43;100.00;102074.25;5078379;28;20024;-84
2021/12/12 11:19:10;;;;;;;34.45;17.75;;;;;;;7.48;100.00;102078.38;5088038;28;20028;-84
2021/12/12 11:21:41;;;;;;;28.60;16.63;;;;;;;7.45;100.00;102064.56;5087149;28;20038;-84
2021/12/12 11:24:26;;;;;;;29.93;16.23;;;;;;;7.53;100.00;102079.03;5086659;28;20456;-82
2021/12/12 11:27:12;;;;;;;26.92;15.52;;;;;;;7.57;100.00;102076.28;5087895;28;20024;-84
2021/12/12 11:29:42;;;;;;;26.70;16.55;;;;;;;7.57;100.00;102068.41;5086477;28;20609;-82
2021/12/12 11:32:12;;;;;;;26.88;16.25;;;;;;;7.61;100.00;102067.41;5092171;28;20042;-82
2021/12/12 11:34:43;;;;;;;28.42;16.40;;;;;;;7.62;100.00;102063.88;5092554;28;20028;-82
2021/12/12 11:37:33;;;;;;;23.92;14.75;;;;;;;7.63;100.00;102065.56;5091385;28;20062;-82
2021/12/12 11:40:40;;;;;;;24.85;16.23;;;;;;;7.63;100.00;102060.34;5086715;28;20093;-85
2021/12/12 11:43:27;;;;;;;21.80;14.75;;;;;;;7.70;100.00;102072.25;5009178;28;20038;-84
2021/12/12 11:45:57;;;;;;;24.20;15.45;;;;;;;7.68;100.00;102064.47;5100568;28;20059;-84
2021/12/12 11:48:55;;;;;;;23.50;14.98;;;;;;;7.76;100.00;102075.44;5090534;28;20426;-84
2021/12/12 11:51:43;;;;;;;22.52;15.25;;;;;;;7.71;100.00;102061.69;5091099;28;20055;-84
2021/12/12 11:54:26;;;;;;;24.77;14.63;;;;;;;7.78;100.00;102072.78;5092189;28;20028;-84